createdAt,value
2018-09-06T00:01:29.946Z,20.03
2018-09-06T00:03:59.195Z,20.05
2018-09-06T00:06:29.459Z,20.04
2018-09-06T00:08:59.388Z,20.06
2018-09-06T00:11:28.610Z,20.00
2018-09-06T00:13:58.593Z,19.95
2018-09-06T00:16:29.663Z,19.94
2018-09-06T00:18:58.582Z,19.90
2018-09-06T00:21:27.778Z,19.87
2018-09-06T00:23:56.806Z,19.88
2018-09-06T00:26:26.179Z,19.86
2018-09-06T00:28:55.254Z,19.85
2018-09-06T00:31:24.330Z,19.82
2018-09-06T00:33:54.773Z,19.84
2018-09-06T00:36:26.103Z,19.79
2018-09-06T00:38:56.157Z,19.80
2018-09-06T00:41:26.279Z,19.78
2018-09-06T00:43:55.490Z,19.79
2018-09-06T00:46:25.560Z,19.76
2018-09-06T00:48:55.247Z,19.73
2018-09-06T00:51:25.502Z,19.75
2018-09-06T00:53:55.914Z,19.69
2018-09-06T00:56:27.120Z,19.68
2018-09-06T00:58:56.262Z,19.67
2018-09-06T01:01:26.030Z,19.63
2018-09-06T01:03:55.619Z,19.61
2018-09-06T01:06:25.702Z,19.60
2018-09-06T01:08:54.517Z,19.57
2018-09-06T01:11:24.087Z,19.57
2018-09-06T01:13:54.039Z,19.56
2018-09-06T01:16:24.030Z,19.56
2018-09-06T01:18:53.294Z,19.50
2018-09-06T01:21:23.063Z,19.47
2018-09-06T01:23:52.880Z,19.48
2018-09-06T01:26:23.466Z,19.47
2018-09-06T01:28:53.188Z,19.48
2018-09-06T01:31:22.766Z,19.42
2018-09-06T01:33:52.846Z,19.38
2018-09-06T01:36:27.137Z,19.36
2018-09-06T01:38:56.638Z,19.36
2018-09-06T01:41:26.910Z,19.34
2018-09-06T01:43:55.826Z,19.33
2018-09-06T01:46:26.363Z,19.32
2018-09-06T01:48:55.389Z,19.30
2018-09-06T01:51:24.236Z,19.30
2018-09-06T01:53:53.551Z,19.28
2018-09-06T01:56:23.377Z,19.26
2018-09-06T01:58:52.562Z,19.16
2018-09-06T02:01:22.141Z,19.22
2018-09-06T02:03:51.651Z,19.17
2018-09-06T02:06:22.113Z,19.15
2018-09-06T02:08:51.004Z,19.15
2018-09-06T02:11:20.868Z,19.16
2018-09-06T02:13:50.277Z,19.17
2018-09-06T02:16:20.514Z,19.17
2018-09-06T02:18:51.155Z,19.15
2018-09-06T02:21:20.426Z,19.15
2018-09-06T02:23:49.880Z,19.12
2018-09-06T02:26:19.068Z,19.11
2018-09-06T02:28:48.394Z,19.12
2018-09-06T02:31:17.528Z,19.09
2018-09-06T02:33:48.026Z,19.06
2018-09-06T02:36:18.027Z,19.04
2018-09-06T02:38:47.792Z,19.01
2018-09-06T02:41:17.228Z,18.99
2018-09-06T02:43:46.738Z,18.99
2018-09-06T02:46:16.119Z,18.98
2018-09-06T02:48:45.183Z,18.97
2018-09-06T02:51:15.655Z,18.99
2018-09-06T02:53:45.082Z,18.98
2018-09-06T02:56:14.515Z,18.98
2018-09-06T02:58:43.481Z,18.97
2018-09-06T03:01:12.724Z,18.97
2018-09-06T03:03:42.422Z,18.97
2018-09-06T03:06:13.235Z,18.99
2018-09-06T03:08:42.311Z,19.00
2018-09-06T03:11:17.382Z,18.97
2018-09-06T03:13:46.195Z,18.92
2018-09-06T03:16:15.420Z,18.91
2018-09-06T03:18:44.433Z,18.93
2018-09-06T03:21:15.252Z,18.92
2018-09-06T03:23:45.065Z,18.92
2018-09-06T03:26:16.682Z,18.92
2018-09-06T03:28:46.915Z,18.91
2018-09-06T03:31:16.587Z,18.90
2018-09-06T03:33:46.229Z,18.94
2018-09-06T03:36:16.947Z,18.93
2018-09-06T03:38:46.728Z,18.94
2018-09-06T03:41:16.629Z,18.93
2018-09-06T03:43:46.753Z,18.91
2018-09-06T03:46:17.328Z,18.88
2018-09-06T03:48:46.495Z,18.87
2018-09-06T03:51:15.502Z,18.87
2018-09-06T03:53:45.160Z,18.85
2018-09-06T03:56:14.519Z,18.84
2018-09-06T03:58:44.055Z,18.83
2018-09-06T04:01:12.873Z,18.83
2018-09-06T04:03:42.535Z,18.81
2018-09-06T04:06:11.456Z,18.79
2018-09-06T04:08:41.686Z,18.77
2018-09-06T04:11:11.409Z,18.78
2018-09-06T04:13:41.377Z,18.76
2018-09-06T04:16:10.384Z,18.75
2018-09-06T04:18:39.898Z,18.76
2018-09-06T04:21:09.050Z,18.75
2018-09-06T04:23:38.488Z,18.80
2018-09-06T04:26:08.228Z,18.75
2018-09-06T04:28:38.391Z,18.73
2018-09-06T04:31:07.499Z,18.68
2018-09-06T04:33:37.727Z,18.70
2018-09-06T04:36:07.190Z,18.67
2018-09-06T04:38:37.640Z,18.68
2018-09-06T04:41:07.220Z,18.70
2018-09-06T04:43:38.077Z,18.78
2018-09-06T04:46:07.121Z,18.70
2018-09-06T04:48:36.706Z,18.68
2018-09-06T04:51:06.564Z,18.74
2018-09-06T04:53:36.295Z,18.71
2018-09-06T04:56:06.235Z,18.70
2018-09-06T04:58:35.561Z,18.65
2018-09-06T05:01:05.047Z,18.59
2018-09-06T05:03:35.278Z,18.58
2018-09-06T05:06:05.501Z,18.56
2018-09-06T05:08:35.826Z,18.59
2018-09-06T05:11:05.249Z,18.61
2018-09-06T05:13:34.311Z,18.60
2018-09-06T05:16:04.166Z,18.57
2018-09-06T05:18:34.138Z,18.58
2018-09-06T05:21:03.659Z,18.57
2018-09-06T05:23:34.250Z,18.55
2018-09-06T05:26:03.209Z,18.57
2018-09-06T05:28:32.365Z,18.60
2018-09-06T05:31:03.039Z,18.65
2018-09-06T05:33:33.055Z,18.66
2018-09-06T05:36:02.630Z,18.79
2018-09-06T05:38:32.223Z,18.81
2018-09-06T05:41:01.721Z,18.82
2018-09-06T05:43:31.236Z,18.91
2018-09-06T05:46:00.422Z,18.89
2018-09-06T05:48:29.926Z,18.90
2018-09-06T05:50:59.805Z,18.98
2018-09-06T05:53:29.732Z,19.03
2018-09-06T05:55:59.731Z,19.09
2018-09-06T05:58:29.127Z,19.21
2018-09-06T06:00:58.332Z,19.31
2018-09-06T06:03:27.882Z,19.37
2018-09-06T06:05:58.391Z,19.39
2018-09-06T06:08:39.746Z,19.42
2018-09-06T06:11:09.662Z,19.39
2018-09-06T06:13:39.108Z,19.42
2018-09-06T06:16:08.251Z,19.48
2018-09-06T06:18:37.239Z,19.57
2018-09-06T06:21:07.359Z,19.56
2018-09-06T06:23:37.502Z,19.68
2018-09-06T06:26:07.272Z,19.71
2018-09-06T06:28:37.462Z,19.69
2018-09-06T06:31:06.548Z,19.66
2018-09-06T06:33:35.843Z,19.54
2018-09-06T06:36:05.277Z,19.44
2018-09-06T06:38:34.697Z,19.47
2018-09-06T06:41:03.983Z,19.50
2018-09-06T06:43:33.744Z,19.55
2018-09-06T06:46:03.990Z,19.57
2018-09-06T06:48:33.267Z,19.53
2018-09-06T06:51:03.597Z,19.49
2018-09-06T06:53:33.332Z,19.46
2018-09-06T06:56:02.782Z,19.48
2018-09-06T06:58:32.570Z,19.61
2018-09-06T07:01:02.415Z,19.81
2018-09-06T07:03:33.286Z,19.94
2018-09-06T07:06:03.505Z,20.08
2018-09-06T07:08:33.433Z,20.20
2018-09-06T07:11:02.543Z,20.36
2018-09-06T07:13:32.037Z,20.45
2018-09-06T07:16:01.302Z,20.53
2018-09-06T07:18:31.483Z,20.73
2018-09-06T07:21:00.833Z,20.90
2018-09-06T07:23:30.530Z,21.05
2018-09-06T07:26:00.549Z,21.09
2018-09-06T07:28:30.770Z,21.15
2018-09-06T07:31:00.032Z,21.19
2018-09-06T07:33:29.034Z,21.26
2018-09-06T07:35:58.033Z,21.26
2018-09-06T07:38:27.761Z,21.21
2018-09-06T07:40:57.364Z,21.24
2018-09-06T07:43:27.459Z,21.14
2018-09-06T07:45:56.430Z,21.08
2018-09-06T07:48:26.126Z,20.99
2018-09-06T07:50:55.741Z,21.07
2018-09-06T07:53:25.070Z,20.96
2018-09-06T07:55:55.384Z,21.10
2018-09-06T07:58:24.345Z,21.17
2018-09-06T08:00:55.659Z,21.26
2018-09-06T08:03:25.255Z,21.26
2018-09-06T08:05:54.778Z,21.27
2018-09-06T08:08:23.661Z,21.40
2018-09-06T08:10:52.627Z,21.54
2018-09-06T08:13:22.129Z,21.70
2018-09-06T08:15:52.649Z,21.76
2018-09-06T08:18:21.813Z,21.93
2018-09-06T08:20:51.014Z,22.13
2018-09-06T08:23:20.052Z,22.22
2018-09-06T08:25:50.896Z,22.42
2018-09-06T08:28:19.857Z,22.57
2018-09-06T08:30:49.015Z,22.68
2018-09-06T08:33:18.053Z,22.87
2018-09-06T08:35:47.115Z,23.14
2018-09-06T08:38:17.887Z,23.50
2018-09-06T08:40:46.816Z,23.98
2018-09-06T08:43:16.221Z,24.38
2018-09-06T08:45:45.925Z,24.86
2018-09-06T08:48:15.538Z,25.44
2018-09-06T08:50:44.914Z,25.85
2018-09-06T08:53:14.562Z,26.32
2018-09-06T08:55:44.502Z,26.72
2018-09-06T08:58:13.777Z,26.84
2018-09-06T09:00:47.386Z,27.16
2018-09-06T09:03:17.197Z,27.08
2018-09-06T09:05:47.239Z,27.04
2018-09-06T09:08:16.541Z,27.10
2018-09-06T09:10:45.493Z,26.91
2018-09-06T09:13:14.810Z,26.76
2018-09-06T09:15:44.422Z,26.65
2018-09-06T09:18:13.536Z,26.61
2018-09-06T09:20:42.739Z,26.39
2018-09-06T09:23:12.117Z,25.90
2018-09-06T09:25:42.096Z,25.76
2018-09-06T09:28:12.143Z,25.38
2018-09-06T09:30:41.668Z,25.28
2018-09-06T09:33:10.468Z,25.34
2018-09-06T09:35:40.174Z,25.07
2018-09-06T09:38:09.615Z,25.02
2018-09-06T09:40:39.635Z,25.01
2018-09-06T09:43:09.432Z,25.03
2018-09-06T09:45:39.668Z,25.09
2018-09-06T09:48:08.518Z,24.87
2018-09-06T09:53:08.035Z,24.79
2018-09-06T09:55:37.648Z,24.78
2018-09-06T09:58:07.213Z,24.67
2018-09-06T10:00:38.909Z,24.42
2018-09-06T10:03:13.966Z,24.40
2018-09-06T10:05:49.495Z,24.46
2018-09-06T10:08:24.772Z,24.44
2018-09-06T10:10:53.850Z,24.44
2018-09-06T10:13:23.138Z,24.33
2018-09-06T10:15:53.116Z,24.27
2018-09-06T10:18:22.484Z,24.37
2018-09-06T10:20:51.660Z,24.62
2018-09-06T10:23:20.807Z,24.87
2018-09-06T10:25:50.160Z,25.16
2018-09-06T10:28:19.301Z,25.50
2018-09-06T10:30:48.036Z,25.67
2018-09-06T10:33:17.130Z,25.94
2018-09-06T10:35:46.606Z,25.89
2018-09-06T10:38:15.482Z,25.85
2018-09-06T10:40:44.422Z,25.77
2018-09-06T10:43:14.060Z,25.62
2018-09-06T10:45:44.141Z,25.27
2018-09-06T10:48:13.251Z,25.36
2018-09-06T10:50:42.766Z,25.30
2018-09-06T10:53:12.532Z,25.33
2018-09-06T10:55:41.786Z,25.50
2018-09-06T10:58:10.947Z,25.66
2018-09-06T11:00:40.721Z,25.94
2018-09-06T11:03:10.691Z,26.33
2018-09-06T11:05:40.530Z,26.41
2018-09-06T11:08:10.022Z,26.65
2018-09-06T11:10:40.396Z,26.56
2018-09-06T11:13:09.598Z,26.10
2018-09-06T11:15:38.873Z,25.96
2018-09-06T11:18:07.703Z,25.75
2018-09-06T11:20:37.173Z,25.57
2018-09-06T11:23:07.488Z,25.56
2018-09-06T11:25:36.539Z,25.40
2018-09-06T11:28:06.811Z,25.34
2018-09-06T11:30:36.564Z,25.35
2018-09-06T11:33:06.454Z,25.24
2018-09-06T11:35:36.664Z,25.75
2018-09-06T11:38:05.862Z,25.73
2018-09-06T11:40:35.588Z,25.57
2018-09-06T11:43:04.740Z,26.09
2018-09-06T11:45:34.472Z,26.81
2018-09-06T11:48:05.119Z,27.48
2018-09-06T11:50:34.555Z,28.36
2018-09-06T11:53:04.544Z,28.48
2018-09-06T11:55:33.540Z,27.70
2018-09-06T11:58:04.763Z,27.92
2018-09-06T12:00:35.462Z,29.27
2018-09-06T12:03:04.970Z,30.58
2018-09-06T12:05:36.370Z,31.47
2018-09-06T12:08:06.308Z,30.71
2018-09-06T12:10:36.330Z,31.10
2018-09-06T12:13:05.549Z,31.05
2018-09-06T12:15:35.373Z,33.33
2018-09-06T12:18:04.230Z,35.24
2018-09-06T12:20:33.582Z,36.86
2018-09-06T12:23:02.422Z,36.85
2018-09-06T12:25:31.517Z,35.03
2018-09-06T12:28:00.933Z,34.24
2018-09-06T12:30:30.091Z,35.96
2018-09-06T12:32:59.310Z,37.44
2018-09-06T12:35:28.470Z,37.78
2018-09-06T12:37:57.192Z,36.20
2018-09-06T12:40:26.727Z,34.00
2018-09-06T12:42:55.785Z,34.78
2018-09-06T12:45:24.786Z,36.20
2018-09-06T12:47:53.899Z,36.81
2018-09-06T12:50:23.719Z,36.24
2018-09-06T12:52:52.878Z,34.84
2018-09-06T12:55:21.639Z,34.10
2018-09-06T12:57:50.471Z,33.38
2018-09-06T13:00:20.348Z,32.50
2018-09-06T13:02:49.652Z,31.80
2018-09-06T13:05:19.245Z,30.88
2018-09-06T13:07:49.085Z,29.97
2018-09-06T13:10:19.590Z,29.63
2018-09-06T13:12:48.596Z,29.30
2018-09-06T13:15:17.839Z,28.60
2018-09-06T13:17:46.916Z,28.39
2018-09-06T13:20:18.889Z,27.87
2018-09-06T13:22:48.089Z,27.56
2018-09-06T13:25:17.182Z,27.19
2018-09-06T13:27:46.387Z,27.18
2018-09-06T13:30:16.519Z,27.08
2018-09-06T13:32:46.286Z,26.99
2018-09-06T13:35:15.638Z,27.02
2018-09-06T13:37:45.257Z,26.82
2018-09-06T13:40:14.542Z,26.76
2018-09-06T13:42:43.737Z,26.65
2018-09-06T13:45:12.493Z,26.61
2018-09-06T13:47:41.354Z,26.80
2018-09-06T13:50:10.476Z,26.77
2018-09-06T13:52:39.535Z,26.72
2018-09-06T13:55:10.044Z,26.63
2018-09-06T13:57:40.247Z,26.57
2018-09-06T14:00:09.513Z,26.54
2018-09-06T14:02:38.541Z,26.43
2018-09-06T14:05:07.705Z,26.42
2018-09-06T14:07:37.517Z,26.57
2018-09-06T14:10:06.590Z,26.53
2018-09-06T14:12:36.754Z,26.43
2018-09-06T14:15:06.450Z,26.33
2018-09-06T14:17:35.592Z,26.39
2018-09-06T14:20:05.393Z,26.10
2018-09-06T14:22:36.122Z,26.17
2018-09-06T14:25:05.182Z,26.17
2018-09-06T14:27:34.567Z,26.22
2018-09-06T14:30:05.047Z,26.25
2018-09-06T14:32:35.441Z,26.31
2018-09-06T14:35:05.250Z,26.36
2018-09-06T14:37:35.088Z,26.33
2018-09-06T14:40:04.190Z,26.34
2018-09-06T14:42:34.324Z,26.30
2018-09-06T14:45:04.579Z,26.34
2018-09-06T14:47:34.208Z,26.20
2018-09-06T14:50:04.746Z,26.08
2018-09-06T14:52:34.915Z,26.08
2018-09-06T14:55:05.245Z,26.02
2018-09-06T14:57:35.061Z,25.97
2018-09-06T15:00:04.285Z,25.95
2018-09-06T15:02:34.741Z,25.97
2018-09-06T15:05:05.146Z,26.33
2018-09-06T15:07:34.967Z,26.95
2018-09-06T15:10:04.739Z,27.15
2018-09-06T15:12:33.841Z,27.45
2018-09-06T15:15:02.764Z,27.66
2018-09-06T15:17:32.356Z,27.99
2018-09-06T15:20:01.307Z,28.06
2018-09-06T15:22:30.723Z,27.94
2018-09-06T15:24:59.851Z,28.39
2018-09-06T15:27:28.901Z,28.03
2018-09-06T15:29:58.011Z,27.80
2018-09-06T15:32:27.619Z,27.63
2018-09-06T15:34:56.488Z,27.43
2018-09-06T15:37:25.610Z,27.22
2018-09-06T15:39:54.406Z,27.03
2018-09-06T15:42:23.498Z,26.84
2018-09-06T15:44:53.052Z,26.66
2018-09-06T15:47:21.857Z,26.44
2018-09-06T15:49:50.911Z,26.24
2018-09-06T15:52:19.719Z,25.97
2018-09-06T15:54:48.878Z,25.94
2018-09-06T15:57:17.752Z,25.72
2018-09-06T15:59:48.370Z,25.51
2018-09-06T16:02:17.708Z,25.45
2018-09-06T16:04:48.524Z,25.28
2018-09-06T16:07:17.835Z,25.25
2018-09-06T16:09:46.928Z,25.11
2018-09-06T16:12:16.570Z,24.98
2018-09-06T16:14:46.198Z,24.85
2018-09-06T16:17:16.702Z,24.74
2018-09-06T16:19:45.819Z,24.77
2018-09-06T16:22:16.652Z,24.67
2018-09-06T16:24:46.022Z,24.52
2018-09-06T16:27:15.348Z,24.46
2018-09-06T16:29:45.831Z,24.35
2018-09-06T16:32:16.508Z,24.39
2018-09-06T16:34:45.552Z,24.35
2018-09-06T16:37:16.142Z,24.25
2018-09-06T16:39:46.007Z,24.15
2018-09-06T16:42:16.261Z,24.10
2018-09-06T16:44:45.993Z,24.08
2018-09-06T16:47:15.580Z,24.04
2018-09-06T16:49:46.014Z,23.96
2018-09-06T16:52:16.264Z,23.90
2018-09-06T16:54:46.619Z,23.89
2018-09-06T16:57:16.083Z,23.90
2018-09-06T16:59:48.155Z,23.89
2018-09-06T17:02:17.748Z,23.83
2018-09-06T17:04:47.659Z,23.82
2018-09-06T17:07:17.569Z,23.80
2018-09-06T17:09:47.360Z,23.80
2018-09-06T17:12:17.085Z,23.76
2018-09-06T17:14:47.416Z,23.70
2018-09-06T17:17:17.313Z,23.69
2018-09-06T17:19:46.564Z,23.68
2018-09-06T17:22:16.560Z,23.63
2018-09-06T17:24:46.700Z,23.56
2018-09-06T17:27:16.680Z,23.50
2018-09-06T17:29:46.878Z,23.43
2018-09-06T17:32:17.373Z,23.41
2018-09-06T17:34:47.244Z,23.35
2018-09-06T17:37:16.899Z,23.35
2018-09-06T17:39:45.875Z,23.31
2018-09-06T17:42:15.123Z,23.30
2018-09-06T17:44:45.255Z,23.22
2018-09-06T17:47:14.535Z,23.21
2018-09-06T17:49:45.620Z,23.21
2018-09-06T17:52:15.109Z,23.18
2018-09-06T17:54:44.613Z,23.15
2018-09-06T17:57:14.251Z,23.10
2018-09-06T17:59:44.159Z,23.07
2018-09-06T18:02:13.590Z,23.05
2018-09-06T18:04:42.801Z,23.05
2018-09-06T18:07:13.603Z,23.03
2018-09-06T18:09:45.562Z,23.01
2018-09-06T18:12:15.813Z,22.97
2018-09-06T18:14:46.074Z,22.93
2018-09-06T18:17:15.948Z,22.95
2018-09-06T18:19:45.969Z,22.89
2018-09-06T18:22:16.285Z,22.89
2018-09-06T18:24:45.874Z,22.88
2018-09-06T18:27:16.213Z,22.83
2018-09-06T18:29:46.035Z,22.78
2018-09-06T18:32:15.639Z,22.74
2018-09-06T18:34:46.559Z,22.68
2018-09-06T18:37:16.698Z,22.69
2018-09-06T18:39:46.761Z,22.64
2018-09-06T18:42:15.714Z,22.65
2018-09-06T18:44:46.128Z,22.63
2018-09-06T18:47:16.594Z,22.58
2018-09-06T18:49:46.332Z,22.56
2018-09-06T18:52:15.636Z,22.58
2018-09-06T18:54:45.906Z,22.55
2018-09-06T18:57:14.909Z,22.45
2018-09-06T18:59:44.270Z,22.46
2018-09-06T19:02:14.411Z,22.47
2018-09-06T19:04:44.231Z,22.46
2018-09-06T19:07:14.038Z,22.43
2018-09-06T19:09:43.025Z,22.41
2018-09-06T19:12:12.051Z,22.40
2018-09-06T19:14:41.383Z,22.35
2018-09-06T19:17:11.153Z,22.30
2018-09-06T19:19:41.704Z,22.27
2018-09-06T19:22:12.848Z,22.24
2018-09-06T19:24:42.138Z,22.23
2018-09-06T19:27:11.887Z,22.21
2018-09-06T19:29:41.050Z,22.19
2018-09-06T19:32:11.156Z,22.12
2018-09-06T19:34:40.265Z,22.07
2018-09-06T19:37:09.811Z,22.10
2018-09-06T19:39:39.590Z,22.05
2018-09-06T19:42:10.467Z,22.00
2018-09-06T19:44:39.566Z,21.99
2018-09-06T19:47:09.654Z,21.96
2018-09-06T19:49:39.045Z,21.92
2018-09-06T19:52:08.755Z,21.89
2018-09-06T19:54:37.872Z,21.84
2018-09-06T19:57:08.539Z,21.83
2018-09-06T19:59:38.609Z,21.84
2018-09-06T20:02:11.570Z,21.84
2018-09-06T20:04:41.393Z,21.84
2018-09-06T20:07:12.311Z,21.77
2018-09-06T20:09:41.621Z,21.78
2018-09-06T20:12:10.894Z,21.75
2018-09-06T20:14:42.682Z,21.69
2018-09-06T20:17:12.836Z,21.69
2018-09-06T20:19:44.268Z,21.65
2018-09-06T20:22:14.119Z,21.60
2018-09-06T20:24:44.127Z,21.56
2018-09-06T20:27:15.612Z,21.53
2018-09-06T20:29:44.926Z,21.54
2018-09-06T20:32:14.994Z,21.54
2018-09-06T20:34:44.632Z,21.50
2018-09-06T20:37:13.814Z,21.47
2018-09-06T20:39:43.453Z,21.46
2018-09-06T20:42:12.661Z,21.39
2018-09-06T20:44:42.391Z,21.38
2018-09-06T20:47:11.384Z,21.39
2018-09-06T20:49:41.560Z,21.40
2018-09-06T20:52:12.930Z,21.36
2018-09-06T20:54:43.026Z,21.32
2018-09-06T20:57:12.847Z,21.28
2018-09-06T20:59:42.689Z,21.25
2018-09-06T21:02:17.587Z,21.28
2018-09-06T21:04:47.909Z,21.24
2018-09-06T21:07:18.182Z,21.24
2018-09-06T21:09:48.394Z,21.21
2018-09-06T21:12:19.283Z,21.24
2018-09-06T21:14:48.620Z,21.22
2018-09-06T21:17:18.378Z,21.19
2018-09-06T21:19:48.593Z,21.17
2018-09-06T21:22:18.221Z,21.11
2018-09-06T21:24:48.454Z,21.09
2018-09-06T21:27:20.107Z,21.06
2018-09-06T21:29:49.608Z,21.06
2018-09-06T21:32:19.212Z,21.01
2018-09-06T21:34:49.056Z,20.95
2018-09-06T21:37:18.762Z,20.93
2018-09-06T21:39:47.784Z,20.92
2018-09-06T21:42:17.128Z,20.91
2018-09-06T21:44:47.040Z,20.89
2018-09-06T21:47:17.180Z,20.87
2018-09-06T21:49:48.367Z,20.84
2018-09-06T21:52:19.166Z,20.81
2018-09-06T21:54:48.136Z,20.79
2018-09-06T21:57:18.144Z,20.77
2018-09-06T21:59:47.921Z,20.79
2018-09-06T22:02:22.774Z,20.76
2018-09-06T22:04:52.047Z,20.76
2018-09-06T22:07:22.330Z,20.73
2018-09-06T22:09:51.945Z,20.72
2018-09-06T22:12:21.131Z,20.73
2018-09-06T22:14:52.369Z,20.71
2018-09-06T22:17:22.286Z,20.68
2018-09-06T22:19:52.448Z,20.67
2018-09-06T22:22:26.614Z,20.64
2018-09-06T22:24:56.163Z,20.63
2018-09-06T22:27:25.842Z,20.62
2018-09-06T22:29:54.840Z,20.57
2018-09-06T22:32:23.873Z,20.55
2018-09-06T22:34:52.773Z,20.52
2018-09-06T22:37:22.158Z,20.50
2018-09-06T22:39:51.760Z,20.45
2018-09-06T22:42:20.754Z,20.47
2018-09-06T22:44:51.293Z,20.48
2018-09-06T22:47:21.715Z,20.44
2018-09-06T22:49:50.706Z,20.40
2018-09-06T22:52:20.628Z,20.37
2018-09-06T22:54:50.583Z,20.38
2018-09-06T22:57:19.754Z,20.36
2018-09-06T22:59:48.649Z,20.34
2018-09-06T23:02:18.546Z,20.33
2018-09-06T23:04:49.470Z,20.30
2018-09-06T23:07:20.057Z,20.28
2018-09-06T23:09:50.427Z,20.21
2018-09-06T23:12:21.608Z,20.18
2018-09-06T23:14:51.300Z,20.20
2018-09-06T23:17:20.395Z,20.15
2018-09-06T23:19:49.787Z,20.15
2018-09-06T23:22:18.756Z,20.15
2018-09-06T23:24:49.095Z,20.10
2018-09-06T23:27:18.940Z,20.04
2018-09-06T23:29:48.303Z,20.04
2018-09-06T23:32:17.520Z,20.01
2018-09-06T23:34:46.550Z,20.03
2018-09-06T23:37:16.234Z,20.01
2018-09-06T23:39:46.100Z,19.99
2018-09-06T23:42:15.801Z,19.95
2018-09-06T23:44:44.923Z,19.92
2018-09-06T23:47:14.793Z,19.88
2018-09-06T23:49:43.666Z,19.89
2018-09-06T23:52:13.418Z,19.88
2018-09-06T23:54:43.185Z,19.88
2018-09-06T23:57:12.158Z,19.85
2018-09-06T23:59:42.500Z,19.84
